Chena Hot Springs, Alaska
Current Conditions -  °F | °C
As of 3:58 AM on Monday 24 Nov 2014 (Local Time) from PAEI Reporting Station
Scattered Clouds Scattered Clouds  
Wind Chill: -6°   Ceiling: Unl
Heat Index: -6°   Visibility: 10mi
Dew Point: -11°   Wind: 0mph
Humidity: 77%   Direction: NA
Pressure: 29.7"   Gusts: NA
Location:  65.05°N, 146.06°W
Report Text: PAEI 241258Z AUTO 00000KT 10SM SCT090 M21/M24 A2970 RMK AO2 SLP077 T12101240 $
Loading
Personal Weather Stations






























Interactive Weather Map New forecast layout! Learn more

10-Day Weather Forecast

Advertisements
Track Severe Weather on mobile